sensor_id;sensor_type;location;lat;lon;timestamp;pressure;altitude;pressure_sealevel;temperature;humidity
42633;BME280;28261;53.304;-6.284;2023-04-25T00:01:50;101360.84;;;5.33;94.65
42633;BME280;28261;53.304;-6.284;2023-04-25T00:03:55;101359.97;;;5.33;94.74
42633;BME280;28261;53.304;-6.284;2023-04-25T00:06:00;101369.53;;;5.35;95.04
42633;BME280;28261;53.304;-6.284;2023-04-25T00:08:05;101370.22;;;5.40;94.95
42633;BME280;28261;53.304;-6.284;2023-04-25T00:10:10;101374.59;;;5.41;94.49
42633;BME280;28261;53.304;-6.284;2023-04-25T00:12:15;101374.53;;;5.43;94.42
42633;BME280;28261;53.304;-6.284;2023-04-25T00:14:20;101378.78;;;5.47;94.55
42633;BME280;28261;53.304;-6.284;2023-04-25T00:16:28;101377.88;;;5.47;94.10
42633;BME280;28261;53.304;-6.284;2023-04-25T00:18:38;101374.34;;;5.48;94.71
42633;BME280;28261;53.304;-6.284;2023-04-25T00:20:42;101368.19;;;5.49;94.58
42633;BME280;28261;53.304;-6.284;2023-04-25T00:22:49;101368.13;;;5.50;94.80
42633;BME280;28261;53.304;-6.284;2023-04-25T00:24:55;101365.44;;;5.52;94.47
42633;BME280;28261;53.304;-6.284;2023-04-25T00:27:00;101361.06;;;5.52;94.39
42633;BME280;28261;53.304;-6.284;2023-04-25T00:29:04;101367.16;;;5.53;94.95
42633;BME280;28261;53.304;-6.284;2023-04-25T00:31:09;101368.00;;;5.53;95.17
42633;BME280;28261;53.304;-6.284;2023-04-25T00:33:14;101367.16;;;5.53;94.31
42633;BME280;28261;53.304;-6.284;2023-04-25T00:35:20;101368.13;;;5.50;94.50
42633;BME280;28261;53.304;-6.284;2023-04-25T00:37:24;101370.75;;;5.50;94.20
42633;BME280;28261;53.304;-6.284;2023-04-25T00:39:29;101368.19;;;5.49;95.49
42633;BME280;28261;53.304;-6.284;2023-04-25T00:41:34;101363.00;;;5.47;95.98
42633;BME280;28261;53.304;-6.284;2023-04-25T00:43:39;101359.47;;;5.47;95.21
42633;BME280;28261;53.304;-6.284;2023-04-25T00:45:47;101366.53;;;5.46;95.39
42633;BME280;28261;53.304;-6.284;2023-04-25T00:47:53;101363.09;;;5.44;95.78
42633;BME280;28261;53.304;-6.284;2023-04-25T00:49:58;101368.41;;;5.42;96.14
42633;BME280;28261;53.304;-6.284;2023-04-25T00:52:05;101364.13;;;5.40;96.07
42633;BME280;28261;53.304;-6.284;2023-04-25T00:54:09;101368.56;;;5.38;95.94
42633;BME280;28261;53.304;-6.284;2023-04-25T00:56:14;101366.00;;;5.36;96.09
42633;BME280;28261;53.304;-6.284;2023-04-25T00:58:19;101374.78;;;5.35;96.13
42633;BME280;28261;53.304;-6.284;2023-04-25T01:00:24;101368.75;;;5.33;96.11
42633;BME280;28261;53.304;-6.284;2023-04-25T01:02:29;101365.34;;;5.30;96.60
42633;BME280;28261;53.304;-6.284;2023-04-25T01:04:34;101368.03;;;5.28;96.42
42633;BME280;28261;53.304;-6.284;2023-04-25T01:06:39;101369.84;;;5.26;97.34
42633;BME280;28261;53.304;-6.284;2023-04-25T01:08:45;101362.97;;;5.22;98.34
42633;BME280;28261;53.304;-6.284;2023-04-25T01:10:50;101369.19;;;5.19;98.82
42633;BME280;28261;53.304;-6.284;2023-04-25T01:12:54;101378.97;;;5.16;98.70
42633;BME280;28261;53.304;-6.284;2023-04-25T01:14:58;101375.53;;;5.14;98.19
42633;BME280;28261;53.304;-6.284;2023-04-25T01:17:03;101373.84;;;5.11;98.26
42633;BME280;28261;53.304;-6.284;2023-04-25T01:19:12;101375.69;;;5.09;97.95
42633;BME280;28261;53.304;-6.284;2023-04-25T01:21:23;101371.34;;;5.08;97.25
42633;BME280;28261;53.304;-6.284;2023-04-25T01:23:29;101373.22;;;5.04;98.09
42633;BME280;28261;53.304;-6.284;2023-04-25T01:25:36;101374.19;;;5.02;97.76
42633;BME280;28261;53.304;-6.284;2023-04-25T01:27:40;101371.63;;;4.99;97.77
42633;BME280;28261;53.304;-6.284;2023-04-25T01:29:45;101369.94;;;4.98;98.47
42633;BME280;28261;53.304;-6.284;2023-04-25T01:31:49;101362.97;;;4.97;99.17
42633;BME280;28261;53.304;-6.284;2023-04-25T01:33:55;101358.66;;;4.94;99.37
42633;BME280;28261;53.304;-6.284;2023-04-25T01:36:00;101356.03;;;4.94;99.33
42633;BME280;28261;53.304;-6.284;2023-04-25T01:38:06;101351.75;;;4.91;98.18
42633;BME280;28261;53.304;-6.284;2023-04-25T01:40:11;101356.22;;;4.88;98.13
42633;BME280;28261;53.304;-6.284;2023-04-25T01:42:15;101361.59;;;4.85;98.72
42633;BME280;28261;53.304;-6.284;2023-04-25T01:44:20;101353.81;;;4.82;99.49
42633;BME280;28261;53.304;-6.284;2023-04-25T01:46:26;101356.50;;;4.80;99.26
42633;BME280;28261;53.304;-6.284;2023-04-25T01:48:30;101353.88;;;4.80;98.06
42633;BME280;28261;53.304;-6.284;2023-04-25T01:50:35;101355.63;;;4.80;98.79
42633;BME280;28261;53.304;-6.284;2023-04-25T01:52:40;101353.00;;;4.80;98.47
42633;BME280;28261;53.304;-6.284;2023-04-25T01:54:47;101353.09;;;4.77;98.58
42633;BME280;28261;53.304;-6.284;2023-04-25T01:56:53;101348.75;;;4.75;99.17
42633;BME280;28261;53.304;-6.284;2023-04-25T01:59:01;101348.84;;;4.72;99.01
42633;BME280;28261;53.304;-6.284;2023-04-25T02:01:21;101348.91;;;4.71;99.50
42633;BME280;28261;53.304;-6.284;2023-04-25T02:03:45;101364.72;;;4.69;99.20
42633;BME280;28261;53.304;-6.284;2023-04-25T02:05:59;101372.56;;;4.71;99.04
42633;BME280;28261;53.304;-6.284;2023-04-25T02:08:08;101357.75;;;4.68;99.89
42633;BME280;28261;53.304;-6.284;2023-04-25T02:10:15;101357.81;;;4.67;100.00
42633;BME280;28261;53.304;-6.284;2023-04-25T02:12:36;101357.97;;;4.62;100.00
42633;BME280;28261;53.304;-6.284;2023-04-25T02:14:53;101360.66;;;4.59;99.74
42633;BME280;28261;53.304;-6.284;2023-04-25T02:17:19;101363.38;;;4.56;100.00
42633;BME280;28261;53.304;-6.284;2023-04-25T02:19:26;101368.75;;;4.53;100.00
42633;BME280;28261;53.304;-6.284;2023-04-25T02:21:30;101368.75;;;4.53;100.00
42633;BME280;28261;53.304;-6.284;2023-04-25T02:23:34;101366.22;;;4.50;100.00
42633;BME280;28261;53.304;-6.284;2023-04-25T02:25:41;101367.13;;;4.49;100.00
42633;BME280;28261;53.304;-6.284;2023-04-25T02:27:46;101359.31;;;4.47;100.00
42633;BME280;28261;53.304;-6.284;2023-04-25T02:29:51;101357.69;;;4.43;100.00
42633;BME280;28261;53.304;-6.284;2023-04-25T02:31:56;101359.53;;;4.39;100.00
42633;BME280;28261;53.304;-6.284;2023-04-25T02:34:01;101361.34;;;4.37;100.00
42633;BME280;28261;53.304;-6.284;2023-04-25T02:36:06;101358.72;;;4.37;100.00
42633;BME280;28261;53.304;-6.284;2023-04-25T02:38:11;101364.06;;;4.34;100.00
42633;BME280;28261;53.304;-6.284;2023-04-25T02:40:16;101358.91;;;4.31;100.00
42633;BME280;28261;53.304;-6.284;2023-04-25T02:42:23;101367.84;;;4.26;100.00
42633;BME280;28261;53.304;-6.284;2023-04-25T02:44:29;101369.69;;;4.22;100.00
42633;BME280;28261;53.304;-6.284;2023-04-25T02:46:35;101373.31;;;4.18;100.00
42633;BME280;28261;53.304;-6.284;2023-04-25T02:48:41;101362.91;;;4.15;100.00
42633;BME280;28261;53.304;-6.284;2023-04-25T02:50:46;101364.75;;;4.11;100.00
42633;BME280;28261;53.304;-6.284;2023-04-25T02:52:50;101364.81;;;4.10;100.00
42633;BME280;28261;53.304;-6.284;2023-04-25T02:55:02;101364.06;;;4.06;100.00
42633;BME280;28261;53.304;-6.284;2023-04-25T02:57:08;101359.75;;;4.03;100.00
42633;BME280;28261;53.304;-6.284;2023-04-25T02:59:14;101357.19;;;4.02;100.00
42633;BME280;28261;53.304;-6.284;2023-04-25T03:01:19;101365.03;;;4.02;100.00
42633;BME280;28261;53.304;-6.284;2023-04-25T03:03:24;101351.06;;;4.01;100.00
42633;BME280;28261;53.304;-6.284;2023-04-25T03:05:28;101353.56;;;4.04;100.00
42633;BME280;28261;53.304;-6.284;2023-04-25T03:07:33;101347.53;;;4.02;100.00
42633;BME280;28261;53.304;-6.284;2023-04-25T03:09:38;101351.16;;;3.98;100.00
42633;BME280;28261;53.304;-6.284;2023-04-25T03:11:43;101349.53;;;3.94;100.00
42633;BME280;28261;53.304;-6.284;2023-04-25T03:13:48;101346.94;;;3.93;100.00
42633;BME280;28261;53.304;-6.284;2023-04-25T03:15:56;101354.03;;;3.89;100.00
42633;BME280;28261;53.304;-6.284;2023-04-25T03:18:01;101350.63;;;3.85;100.00
42633;BME280;28261;53.304;-6.284;2023-04-25T03:20:07;101350.69;;;3.84;100.00
42633;BME280;28261;53.304;-6.284;2023-04-25T03:22:12;101347.25;;;3.82;100.00
42633;BME280;28261;53.304;-6.284;2023-04-25T03:24:16;101349.03;;;3.80;100.00
42633;BME280;28261;53.304;-6.284;2023-04-25T03:26:21;101350.88;;;3.78;100.00
42633;BME280;28261;53.304;-6.284;2023-04-25T03:28:25;101359.72;;;3.73;100.00
42633;BME280;28261;53.304;-6.284;2023-04-25T03:30:30;101353.66;;;3.71;100.00
42633;BME280;28261;53.304;-6.284;2023-04-25T03:32:35;101355.56;;;3.66;100.00
42633;BME280;28261;53.304;-6.284;2023-04-25T03:34:41;101354.75;;;3.64;100.00
42633;BME280;28261;53.304;-6.284;2023-04-25T03:36:45;101365.22;;;3.64;100.00
42633;BME280;28261;53.304;-6.284;2023-04-25T03:38:49;101365.22;;;3.64;100.00
42633;BME280;28261;53.304;-6.284;2023-04-25T03:40:55;101365.19;;;3.66;100.00
42633;BME280;28261;53.304;-6.284;2023-04-25T03:43:34;101364.34;;;3.65;100.00
42633;BME280;28261;53.304;-6.284;2023-04-25T03:45:43;101364.34;;;3.65;100.00
42633;BME280;28261;53.304;-6.284;2023-04-25T03:47:49;101364.41;;;3.62;100.00
42633;BME280;28261;53.304;-6.284;2023-04-25T03:49:52;101365.38;;;3.60;100.00
42633;BME280;28261;53.304;-6.284;2023-04-25T03:51:57;101361.91;;;3.58;100.00
42633;BME280;28261;53.304;-6.284;2023-04-25T03:54:05;101369.81;;;3.56;100.00
42633;BME280;28261;53.304;-6.284;2023-04-25T03:56:42;101371.59;;;3.54;100.00
42633;BME280;28261;53.304;-6.284;2023-04-25T03:58:53;101365.56;;;3.52;100.00
42633;BME280;28261;53.304;-6.284;2023-04-25T04:00:59;101362.09;;;3.50;100.00
42633;BME280;28261;53.304;-6.284;2023-04-25T04:03:07;101363.84;;;3.51;100.00
42633;BME280;28261;53.304;-6.284;2023-04-25T04:05:11;101360.38;;;3.50;100.00
42633;BME280;28261;53.304;-6.284;2023-04-25T04:07:22;101367.34;;;3.50;100.00
42633;BME280;28261;53.304;-6.284;2023-04-25T04:09:29;101361.41;;;3.45;100.00
42633;BME280;28261;53.304;-6.284;2023-04-25T04:11:35;101357.13;;;3.41;100.00
42633;BME280;28261;53.304;-6.284;2023-04-25T04:13:40;101358.19;;;3.35;100.00
42633;BME280;28261;53.304;-6.284;2023-04-25T04:15:44;101360.84;;;3.32;100.00
42633;BME280;28261;53.304;-6.284;2023-04-25T04:17:48;101353.97;;;3.28;100.00
42633;BME280;28261;53.304;-6.284;2023-04-25T04:19:54;101351.31;;;3.29;100.00
42633;BME280;28261;53.304;-6.284;2023-04-25T04:21:57;101351.31;;;3.29;100.00
42633;BME280;28261;53.304;-6.284;2023-04-25T04:24:01;101353.91;;;3.31;100.00
42633;BME280;28261;53.304;-6.284;2023-04-25T04:26:14;101355.66;;;3.30;100.00
42633;BME280;28261;53.304;-6.284;2023-04-25T04:28:26;101353.94;;;3.29;100.00
42633;BME280;28261;53.304;-6.284;2023-04-25T04:30:39;101356.56;;;3.29;100.00
42633;BME280;28261;53.304;-6.284;2023-04-25T04:32:43;101362.72;;;3.28;100.00
42633;BME280;28261;53.304;-6.284;2023-04-25T04:34:49;101361.84;;;3.28;100.00
42633;BME280;28261;53.304;-6.284;2023-04-25T04:36:57;101364.50;;;3.26;100.00
42633;BME280;28261;53.304;-6.284;2023-04-25T04:39:00;101371.50;;;3.26;100.00
42633;BME280;28261;53.304;-6.284;2023-04-25T04:41:10;101368.94;;;3.24;100.00
42633;BME280;28261;53.304;-6.284;2023-04-25T04:43:28;101372.44;;;3.23;100.00
42633;BME280;28261;53.304;-6.284;2023-04-25T04:45:44;101372.53;;;3.20;100.00
42633;BME280;28261;53.304;-6.284;2023-04-25T04:48:07;101371.75;;;3.16;100.00
42633;BME280;28261;53.304;-6.284;2023-04-25T04:50:49;101371.75;;;3.16;100.00
42633;BME280;28261;53.304;-6.284;2023-04-25T04:53:20;101369.16;;;3.15;100.00
42633;BME280;28261;53.304;-6.284;2023-04-25T04:56:02;101371.00;;;3.11;100.00
42633;BME280;28261;53.304;-6.284;2023-04-25T04:58:25;101367.53;;;3.11;100.00
42633;BME280;28261;53.304;-6.284;2023-04-25T05:00:43;101376.22;;;3.11;100.00
42633;BME280;28261;53.304;-6.284;2023-04-25T05:03:06;101377.13;;;3.10;100.00
42633;BME280;28261;53.304;-6.284;2023-04-25T05:05:18;101371.13;;;3.07;100.00
42633;BME280;28261;53.304;-6.284;2023-04-25T05:07:44;101373.78;;;3.05;100.00
42633;BME280;28261;53.304;-6.284;2023-04-25T05:10:08;101371.25;;;3.00;100.00
42633;BME280;28261;53.304;-6.284;2023-04-25T05:12:19;101375.69;;;2.98;100.00
42633;BME280;28261;53.304;-6.284;2023-04-25T05:14:33;101382.66;;;2.98;100.00
42633;BME280;28261;53.304;-6.284;2023-04-25T05:16:57;101382.72;;;2.96;100.00
42633;BME280;28261;53.304;-6.284;2023-04-25T05:19:32;101386.16;;;2.98;100.00
42633;BME280;28261;53.304;-6.284;2023-04-25T05:21:59;101385.19;;;3.02;100.00
42633;BME280;28261;53.304;-6.284;2023-04-25T05:24:13;101393.81;;;3.08;100.00
42633;BME280;28261;53.304;-6.284;2023-04-25T05:26:38;101396.38;;;3.09;100.00
42633;BME280;28261;53.304;-6.284;2023-04-25T05:29:12;101391.09;;;3.11;100.00
42633;BME280;28261;53.304;-6.284;2023-04-25T05:31:29;101389.34;;;3.11;100.00
42633;BME280;28261;53.304;-6.284;2023-04-25T05:33:41;101394.56;;;3.11;100.00
42633;BME280;28261;53.304;-6.284;2023-04-25T05:35:46;101397.22;;;3.10;100.00
42633;BME280;28261;53.304;-6.284;2023-04-25T05:37:49;101393.81;;;3.08;100.00
42633;BME280;28261;53.304;-6.284;2023-04-25T05:40:00;101398.09;;;3.10;100.00
42633;BME280;28261;53.304;-6.284;2023-04-25T05:42:26;101400.69;;;3.12;100.00
42633;BME280;28261;53.304;-6.284;2023-04-25T05:44:54;101397.94;;;3.16;100.00
42633;BME280;28261;53.304;-6.284;2023-04-25T05:47:24;101395.16;;;3.22;100.00
42633;BME280;28261;53.304;-6.284;2023-04-25T05:49:41;101396.78;;;3.28;100.00
42633;BME280;28261;53.304;-6.284;2023-04-25T05:52:02;101393.19;;;3.32;100.00
42633;BME280;28261;53.304;-6.284;2023-04-25T05:54:37;101401.75;;;3.37;100.00
42633;BME280;28261;53.304;-6.284;2023-04-25T05:56:41;101399.88;;;3.43;100.00
42633;BME280;28261;53.304;-6.284;2023-04-25T05:58:47;101404.19;;;3.45;100.00
42633;BME280;28261;53.304;-6.284;2023-04-25T06:00:51;101402.31;;;3.50;100.00
42633;BME280;28261;53.304;-6.284;2023-04-25T06:02:54;101411.78;;;3.56;99.99
42633;BME280;28261;53.304;-6.284;2023-04-25T06:04:58;101410.94;;;3.54;99.37
42633;BME280;28261;53.304;-6.284;2023-04-25T06:07:02;101417.09;;;3.53;98.94
42633;BME280;28261;53.304;-6.284;2023-04-25T06:09:07;101426.88;;;3.46;98.83
42633;BME280;28261;53.304;-6.284;2023-04-25T06:11:10;101423.38;;;3.47;99.77
42633;BME280;28261;53.304;-6.284;2023-04-25T06:13:14;101423.16;;;3.55;100.00
42633;BME280;28261;53.304;-6.284;2023-04-25T06:15:19;101411.44;;;3.68;100.00
42633;BME280;28261;53.304;-6.284;2023-04-25T06:17:30;101421.59;;;3.81;99.40
42633;BME280;28261;53.304;-6.284;2023-04-25T06:19:35;101410.00;;;3.88;99.26
42633;BME280;28261;53.304;-6.284;2023-04-25T06:21:39;101403.53;;;4.01;99.63
42633;BME280;28261;53.304;-6.284;2023-04-25T06:23:43;101419.44;;;4.55;99.38
42633;BME280;28261;53.304;-6.284;2023-04-25T06:25:53;101419.59;;;5.32;95.85
42633;BME280;28261;53.304;-6.284;2023-04-25T06:27:58;101410.81;;;5.82;92.26
42633;BME280;28261;53.304;-6.284;2023-04-25T06:30:02;101408.25;;;6.06;90.81
42633;BME280;28261;53.304;-6.284;2023-04-25T06:32:09;101414.88;;;6.16;90.03
42633;BME280;28261;53.304;-6.284;2023-04-25T06:34:13;101415.84;;;6.14;88.59
42633;BME280;28261;53.304;-6.284;2023-04-25T06:36:17;101413.59;;;6.04;89.58
42633;BME280;28261;53.304;-6.284;2023-04-25T06:38:29;101415.06;;;5.86;90.36
42633;BME280;28261;53.304;-6.284;2023-04-25T06:40:33;101422.56;;;5.73;91.61
42633;BME280;28261;53.304;-6.284;2023-04-25T06:42:37;101414.19;;;5.62;92.84
42633;BME280;28261;53.304;-6.284;2023-04-25T06:44:59;101417.72;;;5.61;93.43
42633;BME280;28261;53.304;-6.284;2023-04-25T06:47:10;101413.31;;;5.62;93.12
42633;BME280;28261;53.304;-6.284;2023-04-25T06:49:17;101418.69;;;5.58;93.46
42633;BME280;28261;53.304;-6.284;2023-04-25T06:51:21;101409.31;;;5.51;93.75
42633;BME280;28261;53.304;-6.284;2023-04-25T06:53:28;101412.06;;;5.48;94.57
42633;BME280;28261;53.304;-6.284;2023-04-25T06:55:35;101409.38;;;5.50;95.11
42633;BME280;28261;53.304;-6.284;2023-04-25T06:57:47;101407.59;;;5.50;94.95
42633;BME280;28261;53.304;-6.284;2023-04-25T07:00:20;101403.16;;;5.51;94.90
42633;BME280;28261;53.304;-6.284;2023-04-25T07:02:25;101407.53;;;5.52;94.95
42633;BME280;28261;53.304;-6.284;2023-04-25T07:04:29;101407.41;;;5.55;94.67
42633;BME280;28261;53.304;-6.284;2023-04-25T07:06:33;101408.94;;;5.62;95.26
42633;BME280;28261;53.304;-6.284;2023-04-25T07:08:40;101403.44;;;5.68;94.72
42633;BME280;28261;53.304;-6.284;2023-04-25T07:10:43;101403.34;;;5.71;94.39
42633;BME280;28261;53.304;-6.284;2023-04-25T07:12:50;101400.59;;;5.74;93.92
42633;BME280;28261;53.304;-6.284;2023-04-25T07:14:54;101404.84;;;5.79;94.44
42633;BME280;28261;53.304;-6.284;2023-04-25T07:16:58;101395.03;;;5.82;94.69
42633;BME280;28261;53.304;-6.284;2023-04-25T07:19:05;101402.78;;;5.87;94.45
42633;BME280;28261;53.304;-6.284;2023-04-25T07:21:09;101399.91;;;5.93;94.26
42633;BME280;28261;53.304;-6.284;2023-04-25T07:23:15;101403.97;;;6.03;94.41
42633;BME280;28261;53.304;-6.284;2023-04-25T07:25:19;101401.91;;;6.12;94.43
42633;BME280;28261;53.304;-6.284;2023-04-25T07:27:24;101403.38;;;6.19;93.96
42633;BME280;28261;53.304;-6.284;2023-04-25T07:33:19;101406.53;;;6.29;93.65
42633;BME280;28261;53.304;-6.284;2023-04-25T07:35:26;101405.63;;;6.30;93.36
42633;BME280;28261;53.304;-6.284;2023-04-25T07:37:30;101407.22;;;6.34;93.09
42633;BME280;28261;53.304;-6.284;2023-04-25T07:39:45;101403.53;;;6.38;93.43
42633;BME280;28261;53.304;-6.284;2023-04-25T07:41:50;101401.72;;;6.40;92.98
42633;BME280;28261;53.304;-6.284;2023-04-25T07:44:00;101405.97;;;6.44;93.15
42633;BME280;28261;53.304;-6.284;2023-04-25T07:46:05;101414.47;;;6.51;93.30
42633;BME280;28261;53.304;-6.284;2023-04-25T07:48:10;101405.28;;;6.61;93.67
42633;BME280;28261;53.304;-6.284;2023-04-25T07:50:15;101409.34;;;6.70;92.96
42633;BME280;28261;53.304;-6.284;2023-04-25T07:52:21;101410.13;;;6.72;92.45
42633;BME280;28261;53.304;-6.284;2023-04-25T07:54:31;101409.22;;;6.73;91.96
42633;BME280;28261;53.304;-6.284;2023-04-25T07:56:43;101409.22;;;6.73;91.62
42633;BME280;28261;53.304;-6.284;2023-04-25T07:58:56;101419.63;;;6.76;91.74
42633;BME280;28261;53.304;-6.284;2023-04-25T08:01:00;101412.41;;;6.81;91.75
42633;BME280;28261;53.304;-6.284;2023-04-25T08:03:23;101409.44;;;6.89;90.82
42633;BME280;28261;53.304;-6.284;2023-04-25T08:05:29;101409.50;;;7.09;90.55
42633;BME280;28261;53.304;-6.284;2023-04-25T08:07:40;101410.28;;;7.53;90.33
42633;BME280;28261;53.304;-6.284;2023-04-25T08:09:44;101407.75;;;7.91;89.83
42633;BME280;28261;53.304;-6.284;2023-04-25T08:11:57;101406.28;;;8.23;89.79
42633;BME280;28261;53.304;-6.284;2023-04-25T08:14:05;101413.19;;;8.46;88.20
42633;BME280;28261;53.304;-6.284;2023-04-25T08:16:10;101405.38;;;8.62;88.41
42633;BME280;28261;53.304;-6.284;2023-04-25T08:18:15;101403.28;;;8.69;88.00
42633;BME280;28261;53.304;-6.284;2023-04-25T08:20:22;101413.00;;;8.69;87.85
42633;BME280;28261;53.304;-6.284;2023-04-25T08:22:30;101409.22;;;8.55;89.82
42633;BME280;28261;53.304;-6.284;2023-04-25T08:25:03;101403.31;;;8.31;90.06
42633;BME280;28261;53.304;-6.284;2023-04-25T08:27:07;101409.66;;;8.27;90.21
42633;BME280;28261;53.304;-6.284;2023-04-25T08:29:12;101413.88;;;8.31;89.78
42633;BME280;28261;53.304;-6.284;2023-04-25T08:31:16;101417.00;;;8.39;88.52
42633;BME280;28261;53.304;-6.284;2023-04-25T08:33:31;101419.09;;;8.52;88.75
42633;BME280;28261;53.304;-6.284;2023-04-25T08:35:47;101416.75;;;8.45;85.81
42633;BME280;28261;53.304;-6.284;2023-04-25T08:37:51;101421.56;;;8.36;84.94
42633;BME280;28261;53.304;-6.284;2023-04-25T08:39:55;101417.69;;;8.24;84.42
42633;BME280;28261;53.304;-6.284;2023-04-25T08:42:21;101417.94;;;8.19;85.22
42633;BME280;28261;53.304;-6.284;2023-04-25T08:44:26;101416.94;;;8.22;83.98
42633;BME280;28261;53.304;-6.284;2023-04-25T08:46:31;101412.56;;;8.21;85.23
42633;BME280;28261;53.304;-6.284;2023-04-25T08:48:53;101414.72;;;8.32;84.51
42633;BME280;28261;53.304;-6.284;2023-04-25T08:51:02;101417.28;;;8.33;83.80
42633;BME280;28261;53.304;-6.284;2023-04-25T08:53:14;101416.47;;;8.52;82.68
42633;BME280;28261;53.304;-6.284;2023-04-25T08:55:22;101410.44;;;8.67;82.37
42633;BME280;28261;53.304;-6.284;2023-04-25T08:57:34;101413.41;;;8.78;79.91
42633;BME280;28261;53.304;-6.284;2023-04-25T08:59:39;101410.47;;;8.85;79.33
42633;BME280;28261;53.304;-6.284;2023-04-25T09:01:49;101412.25;;;8.84;78.45
42633;BME280;28261;53.304;-6.284;2023-04-25T09:03:57;101414.91;;;8.84;75.47
42633;BME280;28261;53.304;-6.284;2023-04-25T09:06:02;101417.81;;;8.97;77.08
42633;BME280;28261;53.304;-6.284;2023-04-25T09:08:07;101407.38;;;9.11;75.96
42633;BME280;28261;53.304;-6.284;2023-04-25T09:10:12;101412.31;;;9.19;75.04
42633;BME280;28261;53.304;-6.284;2023-04-25T09:12:18;101415.50;;;9.26;75.75
42633;BME280;28261;53.304;-6.284;2023-04-25T09:14:25;101411.31;;;9.39;73.74
42633;BME280;28261;53.304;-6.284;2023-04-25T09:16:36;101415.81;;;9.37;73.25
42633;BME280;28261;53.304;-6.284;2023-04-25T09:19:22;101415.72;;;9.39;74.28
42633;BME280;28261;53.304;-6.284;2023-04-25T09:21:41;101408.78;;;9.54;72.73
42633;BME280;28261;53.304;-6.284;2023-04-25T09:23:48;101408.31;;;9.63;72.71
42633;BME280;28261;53.304;-6.284;2023-04-25T09:25:55;101412.03;;;9.76;71.00
42633;BME280;28261;53.304;-6.284;2023-04-25T09:28:03;101409.56;;;9.73;71.18
42633;BME280;28261;53.304;-6.284;2023-04-25T09:30:11;101409.06;;;9.82;69.95
42633;BME280;28261;53.304;-6.284;2023-04-25T09:32:38;101414.09;;;9.54;69.52
42633;BME280;28261;53.304;-6.284;2023-04-25T09:34:45;101412.84;;;9.26;70.90
42633;BME280;28261;53.304;-6.284;2023-04-25T09:36:54;101408.34;;;9.10;72.30
42633;BME280;28261;53.304;-6.284;2023-04-25T09:39:34;101411.38;;;9.20;72.52
42633;BME280;28261;53.304;-6.284;2023-04-25T09:41:46;101414.53;;;9.44;72.42
42633;BME280;28261;53.304;-6.284;2023-04-25T09:43:51;101411.13;;;9.42;70.54
42633;BME280;28261;53.304;-6.284;2023-04-25T09:45:56;101406.47;;;9.30;68.58
42633;BME280;28261;53.304;-6.284;2023-04-25T09:48:05;101420.09;;;9.22;69.29
42633;BME280;28261;53.304;-6.284;2023-04-25T09:50:17;101412.06;;;9.06;70.71
42633;BME280;28261;53.304;-6.284;2023-04-25T09:52:27;101415.19;;;9.14;71.04
42633;BME280;28261;53.304;-6.284;2023-04-25T09:54:47;101416.91;;;9.33;70.64
42633;BME280;28261;53.304;-6.284;2023-04-25T09:57:06;101422.81;;;9.38;69.88
42633;BME280;28261;53.304;-6.284;2023-04-25T09:59:14;101419.25;;;9.39;70.26
42633;BME280;28261;53.304;-6.284;2023-04-25T10:01:21;101418.38;;;9.39;69.77
42633;BME280;28261;53.304;-6.284;2023-04-25T10:03:39;101421.56;;;9.28;68.71
42633;BME280;28261;53.304;-6.284;2023-04-25T10:06:04;101425.44;;;9.21;70.32
42633;BME280;28261;53.304;-6.284;2023-04-25T10:08:11;101425.78;;;9.14;70.04
42633;BME280;28261;53.304;-6.284;2023-04-25T10:10:16;101426.44;;;9.01;69.42
42633;BME280;28261;53.304;-6.284;2023-04-25T10:12:21;101424.28;;;8.72;70.69
42633;BME280;28261;53.304;-6.284;2023-04-25T10:14:26;101431.00;;;8.60;71.25
42633;BME280;28261;53.304;-6.284;2023-04-25T10:16:32;101427.53;;;8.60;71.76
42633;BME280;28261;53.304;-6.284;2023-04-25T10:18:37;101435.97;;;8.49;72.76
42633;BME280;28261;53.304;-6.284;2023-04-25T10:20:41;101428.66;;;8.54;72.74
42633;BME280;28261;53.304;-6.284;2023-04-25T10:22:46;101435.88;;;8.51;72.40
42633;BME280;28261;53.304;-6.284;2023-04-25T10:24:57;101424.94;;;8.39;72.11
42633;BME280;28261;53.304;-6.284;2023-04-25T10:27:01;101419.28;;;8.28;72.38
42633;BME280;28261;53.304;-6.284;2023-04-25T10:29:05;101428.56;;;8.37;73.09
42633;BME280;28261;53.304;-6.284;2023-04-25T10:31:09;101425.31;;;8.51;71.51
42633;BME280;28261;53.304;-6.284;2023-04-25T10:33:18;101417.22;;;8.54;72.04
42633;BME280;28261;53.304;-6.284;2023-04-25T10:35:25;101418.59;;;8.62;72.21
42633;BME280;28261;53.304;-6.284;2023-04-25T10:37:31;101422.72;;;8.68;71.43
42633;BME280;28261;53.304;-6.284;2023-04-25T10:39:35;101417.44;;;8.68;71.70
42633;BME280;28261;53.304;-6.284;2023-04-25T10:41:52;101414.41;;;8.76;72.85
42633;BME280;28261;53.304;-6.284;2023-04-25T10:43:59;101423.47;;;8.89;72.36
42633;BME280;28261;53.304;-6.284;2023-04-25T10:46:15;101426.22;;;9.05;72.33
42633;BME280;28261;53.304;-6.284;2023-04-25T10:48:26;101412.16;;;9.22;70.55
42633;BME280;28261;53.304;-6.284;2023-04-25T10:50:37;101425.28;;;9.24;69.72
42633;BME280;28261;53.304;-6.284;2023-04-25T10:52:43;101427.25;;;9.20;69.50
42633;BME280;28261;53.304;-6.284;2023-04-25T10:54:48;101413.88;;;9.23;68.48
42633;BME280;28261;53.304;-6.284;2023-04-25T10:56:52;101416.81;;;9.17;69.02
42633;BME280;28261;53.304;-6.284;2023-04-25T10:59:05;101420.31;;;9.18;68.90
42633;BME280;28261;53.304;-6.284;2023-04-25T11:01:09;101428.63;;;9.10;68.91
42633;BME280;28261;53.304;-6.284;2023-04-25T11:03:16;101423.88;;;8.99;68.43
42633;BME280;28261;53.304;-6.284;2023-04-25T11:05:30;101411.97;;;8.90;68.91
42633;BME280;28261;53.304;-6.284;2023-04-25T11:07:48;101413.16;;;9.02;68.17
42633;BME280;28261;53.304;-6.284;2023-04-25T11:10:08;101404.41;;;9.53;65.49
42633;BME280;28261;53.304;-6.284;2023-04-25T11:12:12;101405.03;;;9.75;63.62
42633;BME280;28261;53.304;-6.284;2023-04-25T11:14:17;101397.00;;;10.10;63.73
42633;BME280;28261;53.304;-6.284;2023-04-25T11:16:23;101397.81;;;10.44;62.04